Mesa Verde, CO (81330)

6:35 AM MST on November 28, 2014 (GMT -0700)
RAWS CHAPIN CO US | Change Station
CLOSE
Current Station
Personal Weather Station
Location: Mesa Verde, CO
Elevation: 7125 ft
Nearby Weather Stations
Active Advisory: Special Weather Statement

Elev 7125 ft 37.20 °N, 108.49 °W | Updated 3 days ago

Clear
Clear
29 °F
Feels Like 29 °F
N
5
Wind Variable Wind from East
Gusts 7 mph

Today
High -- | Low -- °F
--% Chance of Precip.
Yesterday
High -- | Low -- °F
Precip. -- in
7:06 AM 4:57 PM
Waxing Crescent, 40% visible
Pressure 30.32 in
Visibility 10.0 miles
Clouds Clear
Dew Point 19 °F
Humidity 64%
Rainfall 0.00 in
Snow Depth Not available.
UV 0 out of 12
Pollen .30 out of 12
Air Quality Not available.
Flu Activity Not available.
METAR KCEZ 281253Z AUTO 06005KT 10SM CLR M07/M10 A3027 RMK AO2 SLP267 T10721100

More Conditions Fewer Conditions

Pressure 30.32 in
Visibility 10.0 miles
Clouds Clear
Dew Point 19 °F
Humidity 64%
Rainfall 0.00 in
Snow Depth Not available.
UV 0 out of 12
Pollen .30 out of 12
Air Quality Not available.
Flu Activity Not available.
METAR KCEZ 281253Z AUTO 06005KT 10SM CLR M07/M10 A3027 RMK AO2 SLP267 T10721100

More Conditions Fewer Conditions

10-Day Weather Forecast

Almanac

Astronomy

Nov. 28, 2014 Rise Set
Actual Time
Civil Twilight
Nautical Twilight
Astronomical Twilight
Moon
Length of Visible Light
Length of Day
Tomorrow will be .
, % of the Moon is Illuminated

Today's Extremes

State Highs State Lows

Community

WunderPhotos

Upload Photos

1,774,210 photos uploaded!

WunderBlogs® & News

Nearby

Air Quality

  Air Quality AQ Index Pollutant
Not available.

Snow Depth

Station Depth Elevation

Earthquake Activity

City Distance Mag. Time & Date
Minimum magnitude displayed is 2.5.

Coastal Water Temperatures

Place Temperature

Nearby Weather Stations